Time;durP1;ratioP1;P1;durP2;ratioP2;P2;SDS_P1;SDS_P2;PMS_P1;PMS_P2;Temp;Humidity;BMP_temperature;BMP_pressure;BME280_temperature;BME280_humidity;BME280_pressure;Samples;Min_cycle;Max_cycle;Signal;HPM_P1;HPM_P2
2023/10/09 00:02:14;;;;;;;13.45;2.53;;;38.30;27.10;;;;;;5071319;28;20020;-61
2023/10/09 00:04:42;;;;;;;10.50;2.72;;;38.20;27.40;;;;;;5060669;28;20542;-61
2023/10/09 00:07:10;;;;;;;11.25;2.80;;;38.20;28.00;;;;;;5052156;28;20444;-60
2023/10/09 00:09:50;;;;;;;12.25;5.15;;;38.10;26.80;;;;;;5051866;28;21086;-61
2023/10/09 00:12:25;;;;;;;16.10;3.67;;;38.00;26.60;;;;;;5051870;28;20023;-60
2023/10/09 00:14:55;;;;;;;13.82;3.78;;;37.90;27.70;;;;;;5054800;28;20028;-61
2023/10/09 00:17:22;;;;;;;16.40;3.38;;;37.90;26.90;;;;;;5063531;28;20024;-60
2023/10/09 00:19:51;;;;;;;10.25;2.90;;;37.90;27.20;;;;;;5063996;28;20496;-60
2023/10/09 00:22:28;;;;;;;11.68;2.95;;;37.80;26.50;;;;;;5064342;28;20052;-61
2023/10/09 00:25:11;;;;;;;18.30;3.22;;;37.80;27.10;;;;;;5063931;28;20028;-62
2023/10/09 00:27:42;;;;;;;17.50;3.80;;;37.70;27.10;;;;;;5065460;28;20508;-61
2023/10/09 00:30:17;;;;;;;12.88;4.10;;;37.60;26.60;;;;;;5051459;28;20445;-62
2023/10/09 00:33:01;;;;;;;26.77;4.40;;;37.50;26.80;;;;;;5069700;28;20013;-59
2023/10/09 00:35:39;;;;;;;34.70;4.75;;;37.40;27.30;;;;;;5055392;28;20765;-58
2023/10/09 00:43:35;;;;;;;11.38;4.30;;;37.10;27.70;;;;;;5049916;28;20076;-61
2023/10/09 00:46:37;;;;;;;17.73;4.85;;;37.00;28.00;;;;;;5049943;28;20036;-61
2023/10/09 00:48:59;;;;;;;43.00;18.08;;;36.80;28.50;;;;;;5048028;28;20033;-63
2023/10/09 00:51:26;;;;;;;43.13;19.80;;;36.70;27.80;;;;;;5063632;28;20013;-62
2023/10/09 00:54:06;;;;;;;33.65;17.42;;;36.70;28.00;;;;;;5062772;28;20124;-64
2023/10/09 00:56:44;;;;;;;49.22;18.52;;;36.60;28.30;;;;;;5055291;28;20090;-65
2023/10/09 00:59:16;;;;;;;39.05;18.55;;;36.60;28.50;;;;;;5062743;28;20499;-63
2023/10/09 01:02:04;;;;;;;27.92;17.95;;;36.40;28.30;;;;;;5054765;28;20028;-61
2023/10/09 01:04:36;;;;;;;34.95;18.17;;;36.30;28.30;;;;;;5063619;28;20028;-63
2023/10/09 01:07:10;;;;;;;17.80;7.53;;;36.20;28.30;;;;;;5053743;28;20036;-63
2023/10/09 01:09:43;;;;;;;17.52;6.22;;;36.10;29.10;;;;;;5079608;28;20028;-64
2023/10/09 01:12:16;;;;;;;21.55;6.57;;;36.00;29.90;;;;;;5066916;28;20019;-62
2023/10/09 01:14:44;;;;;;;17.50;7.38;;;35.80;29.40;;;;;;5053776;28;20023;-62
2023/10/09 01:17:11;;;;;;;41.63;22.60;;;35.70;29.90;;;;;;5048812;28;20075;-63
2023/10/09 01:19:38;;;;;;;37.22;22.88;;;35.50;30.40;;;;;;5067051;28;20017;-61
2023/10/09 01:22:12;;;;;;;38.45;23.10;;;35.40;30.30;;;;;;5054675;28;20063;-63
2023/10/09 01:24:39;;;;;;;24.25;7.10;;;35.30;31.20;;;;;;5054375;28;20036;-64
2023/10/09 01:27:14;;;;;;;27.60;6.95;;;35.10;30.70;;;;;;5055587;28;20019;-63
2023/10/09 01:29:42;;;;;;;37.53;7.40;;;35.00;31.00;;;;;;5059076;28;21826;-58
2023/10/09 01:32:16;;;;;;;23.98;8.05;;;34.90;31.50;;;;;;5059912;28;20024;-58
2023/10/09 01:34:49;;;;;;;31.27;8.23;;;34.90;31.90;;;;;;5064801;28;20020;-57
2023/10/09 01:37:26;;;;;;;26.55;8.13;;;34.80;32.00;;;;;;5053419;28;20043;-58
2023/10/09 01:39:57;;;;;;;26.08;8.10;;;34.70;31.90;;;;;;5067183;28;20024;-61
2023/10/09 01:45:26;;;;;;;29.13;8.00;;;34.50;32.70;;;;;;5049032;28;20025;-58
2023/10/09 01:47:56;;;;;;;26.40;8.50;;;34.40;32.40;;;;;;5051205;28;20021;-57
2023/10/09 01:50:31;;;;;;;33.42;8.57;;;34.30;33.30;;;;;;5049250;28;20045;-57
2023/10/09 01:53:01;;;;;;;34.25;9.00;;;34.20;33.70;;;;;;5063871;28;20486;-59
2023/10/09 02:00:56;;;;;;;33.03;10.18;;;34.00;33.70;;;;;;5053244;28;20028;-58
2023/10/09 02:03:23;;;;;;;28.73;9.98;;;33.80;32.90;;;;;;5059747;28;20035;-58
2023/10/09 02:05:51;;;;;;;24.70;9.38;;;33.80;33.20;;;;;;5060783;28;20048;-56
2023/10/09 02:08:21;;;;;;;32.03;10.45;;;33.80;32.60;;;;;;5064391;28;20013;-59
2023/10/09 02:10:49;;;;;;;28.63;8.68;;;33.70;33.30;;;;;;5058953;28;20017;-59
2023/10/09 02:13:29;;;;;;;23.05;7.80;;;33.70;33.10;;;;;;5052763;28;20075;-60
2023/10/09 02:16:28;;;;;;;30.70;9.38;;;33.60;34.40;;;;;;5053598;28;20384;-59
2023/10/09 02:18:52;;;;;;;39.83;9.50;;;33.50;34.30;;;;;;5066635;28;20025;-61
2023/10/09 02:21:41;;;;;;;36.90;10.00;;;33.40;33.90;;;;;;5060158;28;20020;-58
2023/10/09 02:24:09;;;;;;;53.85;10.32;;;33.30;34.40;;;;;;5049122;28;20481;-59
2023/10/09 02:29:15;;;;;;;40.85;10.50;;;33.20;34.70;;;;;;5052843;28;20017;-60
2023/10/09 02:31:47;;;;;;;45.70;11.15;;;33.10;34.20;;;;;;5055860;28;22014;-59
2023/10/09 02:34:15;;;;;;;42.35;10.15;;;33.10;34.50;;;;;;5057677;28;20017;-55
2023/10/09 02:36:43;;;;;;;47.70;12.15;;;33.00;34.80;;;;;;5060962;28;20028;-59
2023/10/09 02:39:28;;;;;;;45.22;11.35;;;32.90;34.40;;;;;;5058553;28;20021;-62
2023/10/09 02:44:50;;;;;;;70.47;13.02;;;32.80;34.70;;;;;;5062073;28;20029;-59
2023/10/09 02:47:55;;;;;;;58.53;12.77;;;32.80;34.80;;;;;;5050365;28;20021;-57
2023/10/09 02:50:19;;;;;;;39.03;12.27;;;32.70;35.20;;;;;;5061578;28;20033;-59
2023/10/09 02:52:47;;;;;;;53.47;11.38;;;32.60;35.40;;;;;;5056541;28;20019;-58
2023/10/09 02:55:23;;;;;;;50.38;11.98;;;32.50;35.60;;;;;;5046590;28;20024;-57
2023/10/09 02:57:56;;;;;;;55.63;12.23;;;32.50;35.80;;;;;;5046984;28;20013;-56
2023/10/09 03:00:29;;;;;;;48.45;12.30;;;32.40;36.00;;;;;;5048122;28;20037;-59
2023/10/09 03:02:58;;;;;;;48.22;11.73;;;32.30;35.70;;;;;;5047426;28;20013;-58
2023/10/09 03:05:28;;;;;;;55.35;12.70;;;32.30;36.50;;;;;;5049657;28;20033;-59
2023/10/09 03:07:55;;;;;;;52.83;11.68;;;32.20;36.30;;;;;;5049657;28;20060;-61
2023/10/09 03:10:23;;;;;;;62.17;12.40;;;32.10;36.20;;;;;;5054364;28;20151;-59
2023/10/09 03:12:51;;;;;;;58.35;12.82;;;32.00;36.30;;;;;;5059552;28;20017;-61
2023/10/09 03:15:21;;;;;;;44.22;12.70;;;32.00;36.20;;;;;;5062688;28;20518;-58
2023/10/09 03:17:48;;;;;;;50.83;12.60;;;31.90;35.90;;;;;;5061878;28;20531;-59
2023/10/09 03:20:17;;;;;;;53.85;13.60;;;31.90;36.30;;;;;;5047196;28;20377;-62
2023/10/09 03:22:45;;;;;;;61.33;15.20;;;31.80;36.40;;;;;;5064069;28;20488;-59
2023/10/09 03:25:12;;;;;;;62.63;14.32;;;31.80;36.60;;;;;;5052557;28;20031;-59
2023/10/09 03:27:44;;;;;;;55.17;13.85;;;31.70;36.80;;;;;;5058081;28;20008;-59
2023/10/09 03:30:25;;;;;;;58.47;15.32;;;31.70;36.90;;;;;;5058396;28;20420;-57
2023/10/09 03:32:52;;;;;;;53.10;14.45;;;31.60;37.00;;;;;;5057549;28;20480;-59
2023/10/09 03:35:27;;;;;;;62.53;16.58;;;31.50;37.30;;;;;;5061499;28;20025;-58
2023/10/09 03:38:11;;;;;;;65.45;16.27;;;31.50;37.30;;;;;;5050056;28;20542;-56
2023/10/09 03:40:42;;;;;;;62.00;15.48;;;31.50;37.40;;;;;;5064276;28;20073;-60
2023/10/09 03:43:13;;;;;;;65.53;16.23;;;31.40;37.70;;;;;;5046415;28;20017;-60
2023/10/09 03:45:52;;;;;;;60.53;16.88;;;31.40;37.70;;;;;;5052428;28;20108;-55
2023/10/09 03:48:26;;;;;;;69.30;16.38;;;31.30;38.00;;;;;;5045853;28;20013;-58
2023/10/09 03:51:07;;;;;;;71.53;16.63;;;31.30;37.60;;;;;;5064631;28;20085;-60
2023/10/09 03:53:36;;;;;;;64.72;16.02;;;31.20;37.60;;;;;;5057452;28;20047;-59
2023/10/09 03:56:11;;;;;;;64.18;16.67;;;31.10;37.90;;;;;;5052225;28;20025;-54
2023/10/09 03:58:44;;;;;;;64.20;16.80;;;31.00;38.30;;;;;;5052206;28;20032;-57
2023/10/09 04:01:29;;;;;;;65.60;18.30;;;31.00;38.50;;;;;;5055651;28;20024;-57
2023/10/09 04:03:59;;;;;;;79.43;20.27;;;30.90;38.30;;;;;;5057158;28;20071;-60
2023/10/09 04:06:37;;;;;;;63.67;18.45;;;30.90;38.20;;;;;;5053765;28;20016;-59
2023/10/09 04:15:01;;;;;;;59.05;19.13;;;30.70;39.40;;;;;;5060140;28;20154;-57
2023/10/09 04:22:51;;;;;;;75.70;20.92;;;30.60;40.00;;;;;;5068168;28;20516;-57
2023/10/09 04:25:27;;;;;;;68.00;19.90;;;30.50;40.10;;;;;;5067272;28;20034;-56
2023/10/09 04:28:09;;;;;;;75.97;20.50;;;30.50;40.20;;;;;;5068251;28;20042;-58
2023/10/09 04:30:53;;;;;;;70.63;20.30;;;30.40;40.40;;;;;;5048551;28;20021;-57
2023/10/09 04:34:21;;;;;;;62.78;20.20;;;30.40;41.00;;;;;;5049592;28;20009;-58
2023/10/09 04:36:35;;;;;;;81.28;19.85;;;30.30;41.00;;;;;;5060612;28;20122;-57
2023/10/09 04:42:19;;;;;;;78.45;18.83;;;30.20;41.20;;;;;;5049332;28;20010;-57
2023/10/09 04:44:24;;;;;;;66.78;20.42;;;30.20;41.20;;;;;;5067263;28;20043;-56
2023/10/09 04:49:52;;;;;;;72.72;19.73;;;30.10;41.20;;;;;;5051834;28;20013;-57
2023/10/09 04:52:51;;;;;;;68.90;21.20;;;30.10;41.30;;;;;;5052111;28;20012;-58
2023/10/09 05:03:24;;;;;;;74.55;22.05;;;29.90;41.80;;;;;;5060807;28;20017;-57
2023/10/09 05:05:58;;;;;;;73.70;22.63;;;29.90;41.70;;;;;;5055788;28;20052;-59
2023/10/09 05:16:18;;;;;;;80.72;24.60;;;29.70;42.00;;;;;;5055528;28;20016;-60
2023/10/09 05:19:28;;;;;;;106.00;24.67;;;29.70;42.70;;;;;;5067314;28;20389;-59
2023/10/09 05:21:58;;;;;;;134.85;26.20;;;29.70;42.10;;;;;;5063664;28;20020;-58
2023/10/09 05:24:27;;;;;;;139.93;25.50;;;29.60;41.90;;;;;;5063556;28;20032;-61
2023/10/09 05:27:12;;;;;;;113.97;24.27;;;29.60;42.00;;;;;;5055138;28;20103;-58
2023/10/09 05:32:29;;;;;;;126.60;46.65;;;29.60;41.80;;;;;;5067867;28;20024;-57
2023/10/09 05:37:34;;;;;;;110.68;23.23;;;29.60;41.60;;;;;;5049913;28;20021;-54
2023/10/09 05:48:04;;;;;;;97.30;21.10;;;29.60;42.10;;;;;;5051496;28;20056;-52
2023/10/09 05:50:34;;;;;;;87.97;22.58;;;29.60;42.20;;;;;;5056056;28;20013;-53
2023/10/09 06:03:53;;;;;;;84.82;20.73;;;29.40;41.90;;;;;;5063173;28;20158;-54
2023/10/09 06:06:33;;;;;;;102.47;22.13;;;29.40;41.80;;;;;;5053493;28;20401;-54
2023/10/09 06:11:38;;;;;;;;;;;29.40;42.20;;;;;;5052965;28;20019;-56
2023/10/09 06:16:41;;;;;;;82.55;21.00;;;29.20;42.80;;;;;;5053507;28;20066;-58
2023/10/09 06:24:19;;;;;;;66.78;17.60;;;29.20;43.60;;;;;;5053835;28;20035;-56
2023/10/09 06:30:27;;;;;;;62.95;17.05;;;29.10;43.20;;;;;;5053998;28;20562;-55
2023/10/09 06:43:26;;;;;;;62.28;15.05;;;28.90;44.10;;;;;;5058206;28;20111;-57
2023/10/09 06:48:55;;;;;;;74.28;14.98;;;28.80;43.70;;;;;;5054722;28;20047;-53
2023/10/09 06:59:15;;;;;;;56.33;14.07;;;28.70;44.50;;;;;;5053252;28;20385;-60
2023/10/09 07:02:25;;;;;;;50.22;13.18;;;28.60;44.70;;;;;;5052503;28;20022;-51
2023/10/09 07:06:59;;;;;;;44.97;12.73;;;28.50;45.20;;;;;;5051495;28;20013;-54
2023/10/09 07:09:42;;;;;;;53.42;13.60;;;28.50;45.40;;;;;;5055070;28;20009;-54
2023/10/09 07:12:26;;;;;;;53.92;12.02;;;28.50;45.60;;;;;;5052538;28;20029;-53
2023/10/09 07:17:23;;;;;;;54.95;12.98;;;28.40;45.80;;;;;;5052474;28;20593;-54
2023/10/09 07:24:49;;;;;;;48.28;11.75;;;28.30;46.40;;;;;;5053484;28;20028;-54
2023/10/09 07:27:17;;;;;;;54.22;12.70;;;28.20;46.00;;;;;;5052928;28;20029;-54
2023/10/09 07:29:50;;;;;;;40.38;12.45;;;28.20;46.00;;;;;;5053753;28;20024;-53
2023/10/09 07:32:23;;;;;;;51.08;12.77;;;28.10;46.60;;;;;;5053407;28;20387;-55
2023/10/09 07:34:53;;;;;;;68.70;13.45;;;28.10;47.00;;;;;;5053732;28;20485;-52
2023/10/09 07:37:30;;;;;;;44.70;12.50;;;28.10;46.10;;;;;;5051727;28;20381;-56
2023/10/09 07:39:57;;;;;;;49.50;11.63;;;28.00;46.30;;;;;;5054912;28;20420;-54
2023/10/09 07:48:05;;;;;;;44.30;11.73;;;27.90;46.60;;;;;;5056736;28;20055;-54
2023/10/09 07:50:47;;;;;;;46.33;12.07;;;27.90;46.90;;;;;;5058403;28;20489;-54
2023/10/09 07:53:49;;;;;;;47.72;11.85;;;27.90;46.30;;;;;;5055624;28;20090;-55
2023/10/09 07:56:08;;;;;;;41.78;11.40;;;27.70;46.40;;;;;;5049723;28;20111;-54
2023/10/09 07:58:47;;;;;;;42.67;11.40;;;27.60;46.90;;;;;;5057352;28;20028;-54
2023/10/09 08:01:35;;;;;;;43.45;11.40;;;27.50;48.00;;;;;;5057633;28;20042;-54
2023/10/09 08:04:14;;;;;;;52.70;11.60;;;27.60;48.10;;;;;;5055657;28;20481;-55
2023/10/09 08:06:42;;;;;;;38.92;11.55;;;27.50;47.60;;;;;;5059075;28;20451;-57
2023/10/09 08:14:59;;;;;;;38.78;11.75;;;27.50;49.00;;;;;;5008163;28;20141;-53
2023/10/09 08:17:27;;;;;;;48.80;11.93;;;27.40;49.20;;;;;;5048784;28;20029;-54
2023/10/09 08:19:54;;;;;;;43.55;11.50;;;27.40;50.00;;;;;;5056975;28;20017;-55
2023/10/09 08:24:57;;;;;;;53.10;12.60;;;27.20;49.90;;;;;;5054590;28;20040;-55
2023/10/09 08:33:40;;;;;;;61.53;14.05;;;27.00;50.10;;;;;;5054439;28;20005;-55
2023/10/09 08:36:01;;;;;;;48.80;13.13;;;27.00;50.50;;;;;;5055656;28;20078;-54
2023/10/09 08:38:33;;;;;;;48.88;14.13;;;26.90;50.20;;;;;;5058266;28;20380;-56
2023/10/09 08:41:15;;;;;;;53.28;13.10;;;26.90;50.60;;;;;;5055024;28;20488;-55
2023/10/09 08:43:47;;;;;;;62.33;14.30;;;26.90;49.90;;;;;;5057557;28;20031;-54
2023/10/09 08:46:18;;;;;;;46.60;13.07;;;26.90;49.50;;;;;;5055790;28;20086;-54
2023/10/09 08:48:46;;;;;;;66.50;14.07;;;26.80;49.50;;;;;;5054653;28;20012;-53
2023/10/09 08:51:14;;;;;;;61.97;13.40;;;26.80;49.60;;;;;;5053622;28;20006;-56
2023/10/09 08:53:43;;;;;;;46.50;13.70;;;26.70;49.50;;;;;;5054925;28;20099;-55
2023/10/09 08:56:14;;;;;;;46.90;13.35;;;26.70;49.50;;;;;;5054500;28;20060;-53
2023/10/09 08:58:42;;;;;;;50.20;14.10;;;26.70;49.40;;;;;;5055595;28;20027;-54
2023/10/09 09:01:08;;;;;;;63.05;14.60;;;26.70;49.00;;;;;;5053169;28;20044;-54
2023/10/09 09:03:40;;;;;;;62.53;14.65;;;26.70;49.00;;;;;;5057132;28;20539;-55
2023/10/09 09:06:07;;;;;;;59.90;14.32;;;26.70;49.90;;;;;;5053292;28;20484;-52
2023/10/09 09:08:37;;;;;;;56.28;15.10;;;26.70;49.50;;;;;;5052840;28;20099;-52
2023/10/09 09:11:24;;;;;;;74.32;15.88;;;26.70;50.20;;;;;;5053979;28;20088;-54
2023/10/09 09:14:06;;;;;;;64.95;16.40;;;26.60;50.00;;;;;;5054568;28;20045;-54
2023/10/09 09:16:37;;;;;;;62.28;15.45;;;26.60;49.90;;;;;;5055232;28;20009;-54
2023/10/09 09:21:42;;;;;;;60.08;14.73;;;26.60;50.10;;;;;;5057630;28;20027;-53
2023/10/09 09:26:59;;;;;;;50.38;15.05;;;26.70;50.20;;;;;;5054930;28;20009;-57
2023/10/09 09:29:40;;;;;;;65.82;14.82;;;26.60;50.60;;;;;;5053924;28;20016;-55
2023/10/09 09:34:54;;;;;;;56.05;15.18;;;26.70;49.50;;;;;;5054788;28;20094;-55
2023/10/09 09:37:28;;;;;;;48.10;15.63;;;26.70;50.70;;;;;;5055177;28;20071;-52
2023/10/09 09:42:51;;;;;;;53.13;15.25;;;26.50;50.50;;;;;;5053688;28;20043;-53
2023/10/09 09:45:23;;;;;;;58.38;18.38;;;26.50;50.40;;;;;;5054612;28;20507;-53
2023/10/09 09:47:53;;;;;;;53.42;17.17;;;26.50;51.10;;;;;;5053135;28;20028;-51
2023/10/09 09:50:28;;;;;;;174.88;21.88;;;26.50;50.70;;;;;;5055884;28;20051;-54
2023/10/09 09:52:55;;;;;;;379.05;29.45;;;26.50;50.40;;;;;;5053342;28;20036;-54
2023/10/09 09:55:41;;;;;;;112.07;17.02;;;26.50;50.60;;;;;;5052917;28;20412;-53
2023/10/09 09:58:18;;;;;;;82.60;17.45;;;26.50;50.20;;;;;;5053256;28;20070;-56
2023/10/09 10:00:52;;;;;;;64.47;14.43;;;26.50;50.30;;;;;;5055356;28;20484;-55
2023/10/09 10:03:24;;;;;;;52.80;13.82;;;26.40;50.90;;;;;;5056198;28;20495;-53
2023/10/09 10:05:52;;;;;;;54.00;13.80;;;26.30;50.40;;;;;;5057471;28;20048;-54
2023/10/09 10:08:20;;;;;;;48.58;13.25;;;26.30;50.00;;;;;;5053906;28;20034;-54
2023/10/09 10:11:04;;;;;;;34.30;9.82;;;26.30;49.40;;;;;;5052233;28;20017;-51
2023/10/09 10:13:47;;;;;;;31.35;8.93;;;26.30;49.10;;;;;;5051612;28;20017;-52
2023/10/09 10:19:07;;;;;;;11.93;5.82;;;26.50;46.00;;;;;;5054202;28;20020;-52
2023/10/09 10:24:09;;;;;;;15.30;4.28;;;26.80;44.00;;;;;;5056565;28;20103;-54
2023/10/09 10:26:36;;;;;;;13.23;5.00;;;26.90;43.50;;;;;;5055002;28;20044;-52
2023/10/09 10:29:32;;;;;;;11.30;4.90;;;27.00;44.00;;;;;;5054227;28;20534;-54
2023/10/09 10:32:10;;;;;;;15.15;4.85;;;27.00;43.80;;;;;;5054957;28;20009;-54
2023/10/09 10:35:06;;;;;;;13.02;4.45;;;27.00;43.90;;;;;;5058506;28;20012;-53
2023/10/09 10:38:11;;;;;;;11.77;4.70;;;27.10;44.20;;;;;;5057023;28;20017;-57
2023/10/09 10:40:40;;;;;;;14.40;5.30;;;27.00;44.40;;;;;;5053401;28;20131;-56
2023/10/09 10:47:21;;;;;;;12.00;5.03;;;26.90;44.70;;;;;;5052824;28;20036;-53
2023/10/09 10:49:14;;;;;;;14.75;4.97;;;26.80;45.30;;;;;;5043188;28;20032;-53
2023/10/09 10:51:47;;;;;;;11.73;5.07;;;26.80;46.00;;;;;;5055535;28;20035;-54
2023/10/09 10:57:00;;;;;;;11.23;4.53;;;26.70;45.90;;;;;;5053246;28;20028;-54
2023/10/09 10:59:41;;;;;;;9.60;4.40;;;26.70;45.90;;;;;;5055742;28;20473;-55
2023/10/09 11:04:41;;;;;;;6.22;4.10;;;26.70;46.20;;;;;;5056556;28;20032;-54
2023/10/09 11:15:47;;;;;;;11.05;4.10;;;26.60;45.10;;;;;;5054937;28;20539;-53
2023/10/09 11:18:48;;;;;;;8.98;4.30;;;26.50;45.20;;;;;;5055712;28;20025;-55
2023/10/09 11:32:05;;;;;;;9.77;4.20;;;26.30;47.30;;;;;;5057335;28;20138;-55
2023/10/09 11:34:36;;;;;;;9.65;3.70;;;26.20;47.00;;;;;;5059718;28;20017;-52
2023/10/09 11:37:15;;;;;;;11.35;3.80;;;26.20;47.30;;;;;;5058934;28;20037;-54
2023/10/09 11:39:51;;;;;;;8.85;4.32;;;26.20;47.40;;;;;;5055847;28;20088;-55
2023/10/09 11:45:25;;;;;;;6.63;3.83;;;26.10;48.10;;;;;;5056858;28;20040;-54
2023/10/09 11:47:59;;;;;;;11.02;4.00;;;26.10;48.70;;;;;;5057610;28;20028;-56
2023/10/09 11:55:54;;;;;;;8.23;4.63;;;25.90;48.80;;;;;;5055575;28;20056;-52
2023/10/09 11:58:24;;;;;;;10.93;4.50;;;25.90;49.30;;;;;;5054735;28;20040;-52
2023/10/09 12:01:04;;;;;;;9.13;4.70;;;25.90;48.60;;;;;;5054240;28;20032;-55
2023/10/09 12:03:32;;;;;;;9.82;4.90;;;25.90;48.30;;;;;;5055335;28;20039;-57
2023/10/09 12:06:05;;;;;;;11.38;4.72;;;25.90;48.90;;;;;;5060282;28;20104;-55
2023/10/09 12:08:35;;;;;;;10.60;4.50;;;25.80;48.50;;;;;;5053554;28;20349;-56
2023/10/09 12:11:03;;;;;;;12.43;4.78;;;25.70;48.70;;;;;;5055918;28;20020;-56
2023/10/09 12:13:31;;;;;;;10.07;4.28;;;25.80;49.00;;;;;;5056203;28;20033;-53
2023/10/09 12:15:57;;;;;;;9.40;4.10;;;25.70;49.30;;;;;;5055640;28;20022;-53
2023/10/09 12:18:24;;;;;;;14.65;4.85;;;25.60;49.30;;;;;;5058329;28;20066;-55
2023/10/09 12:20:52;;;;;;;11.70;4.18;;;25.60;49.10;;;;;;5055419;28;20017;-53
2023/10/09 12:23:27;;;;;;;6.80;4.25;;;25.60;48.90;;;;;;5054223;28;20374;-54
2023/10/09 12:25:57;;;;;;;8.77;4.63;;;25.50;49.00;;;;;;5056128;28;20031;-54
2023/10/09 12:28:24;;;;;;;9.13;4.25;;;25.50;49.20;;;;;;5053943;28;20013;-54
2023/10/09 12:30:50;;;;;;;10.20;4.55;;;25.50;49.20;;;;;;5055109;28;20017;-48
2023/10/09 12:33:19;;;;;;;6.13;4.00;;;25.60;48.90;;;;;;5055014;28;20036;-50
2023/10/09 12:35:47;;;;;;;11.55;5.15;;;25.60;49.50;;;;;;5062082;28;20074;-53
2023/10/09 12:38:18;;;;;;;15.70;5.00;;;25.60;49.90;;;;;;5056014;28;20144;-53
2023/10/09 12:40:54;;;;;;;8.25;4.32;;;25.60;49.40;;;;;;5055114;28;20063;-53
2023/10/09 12:43:22;;;;;;;17.38;4.75;;;25.50;49.50;;;;;;5055624;28;20073;-55
2023/10/09 12:45:48;;;;;;;10.23;4.65;;;25.40;49.00;;;;;;5054059;28;20036;-54
2023/10/09 12:48:15;;;;;;;8.45;4.53;;;25.40;49.00;;;;;;5054193;28;20024;-51
2023/10/09 12:50:42;;;;;;;10.73;4.28;;;25.40;49.40;;;;;;5055387;28;20062;-55
2023/10/09 12:53:09;;;;;;;9.57;4.40;;;25.40;48.10;;;;;;5055812;28;20100;-56
2023/10/09 12:55:40;;;;;;;14.35;5.30;;;25.40;48.20;;;;;;5053645;28;20099;-54
2023/10/09 12:58:15;;;;;;;68.85;6.95;;;25.40;48.20;;;;;;5055701;28;20021;-57
2023/10/09 13:00:48;;;;;;;18.92;5.40;;;25.40;48.40;;;;;;5054552;28;20495;-55
2023/10/09 13:03:19;;;;;;;17.65;5.20;;;25.40;48.30;;;;;;5053793;28;20024;-54
2023/10/09 13:05:53;;;;;;;19.40;5.40;;;25.30;48.20;;;;;;5059525;28;20028;-55
2023/10/09 13:08:21;;;;;;;23.95;5.65;;;25.30;49.90;;;;;;5055021;28;20017;-55
2023/10/09 13:10:58;;;;;;;17.25;5.03;;;25.20;49.30;;;;;;5053953;28;20019;-55
2023/10/09 13:13:39;;;;;;;15.95;5.75;;;25.10;49.40;;;;;;5056325;28;20067;-52
2023/10/09 13:16:20;;;;;;;10.63;4.95;;;25.10;49.70;;;;;;5055853;28;20021;-52
2023/10/09 13:18:49;;;;;;;12.70;4.95;;;25.00;49.90;;;;;;5055711;28;20048;-53
2023/10/09 13:21:21;;;;;;;12.18;4.63;;;24.90;50.40;;;;;;5054541;28;20408;-50
2023/10/09 13:23:49;;;;;;;14.07;4.63;;;24.90;51.50;;;;;;5052340;28;20358;-53
2023/10/09 13:26:29;;;;;;;12.95;4.93;;;24.90;52.10;;;;;;5055210;28;20462;-54
2023/10/09 13:29:03;;;;;;;24.90;6.28;;;24.90;51.30;;;;;;5053917;28;20040;-54
2023/10/09 13:31:33;;;;;;;19.80;5.72;;;24.90;51.40;;;;;;5054341;28;20374;-54
2023/10/09 13:34:01;;;;;;;25.38;6.03;;;24.80;51.30;;;;;;5053955;28;20159;-56
2023/10/09 13:36:31;;;;;;;19.95;6.22;;;24.70;51.60;;;;;;5057479;28;20013;-55
2023/10/09 13:41:48;;;;;;;39.35;7.88;;;24.70;52.50;;;;;;5054778;28;20110;-54
2023/10/09 13:44:15;;;;;;;38.28;8.38;;;24.70;53.20;;;;;;5054057;28;20042;-50
2023/10/09 13:46:42;;;;;;;48.72;9.27;;;24.70;52.90;;;;;;5053677;28;20111;-54
2023/10/09 13:49:12;;;;;;;56.05;10.15;;;24.60;52.10;;;;;;5054376;28;20013;-52
2023/10/09 13:51:44;;;;;;;94.07;13.05;;;24.50;52.30;;;;;;5052327;28;20040;-52
2023/10/09 13:57:16;;;;;;;129.85;21.20;;;24.40;52.60;;;;;;4998352;28;20057;-53
2023/10/09 13:59:48;;;;;;;144.95;23.75;;;24.30;52.80;;;;;;5003692;28;20022;-53
2023/10/09 14:02:21;;;;;;;160.35;25.48;;;24.20;53.10;;;;;;4992598;28;20026;-54
2023/10/09 14:04:48;;;;;;;151.10;26.30;;;24.20;53.40;;;;;;5000580;28;20092;-55
2023/10/09 14:07:17;;;;;;;155.48;29.02;;;24.30;54.00;;;;;;4995270;28;20761;-51
2023/10/09 14:12:13;;;;;;;160.30;28.73;;;24.30;53.90;;;;;;5000240;28;20022;-50
2023/10/09 14:14:53;;;;;;;168.00;29.88;;;24.30;53.70;;;;;;5007789;28;20030;-52
2023/10/09 14:17:25;;;;;;;156.38;28.70;;;24.30;54.30;;;;;;5006868;28;20026;-52
2023/10/09 14:19:53;;;;;;;135.95;26.45;;;24.30;54.50;;;;;;5006742;28;20049;-54
2023/10/09 14:22:26;;;;;;;106.38;24.23;;;24.30;54.40;;;;;;5006988;28;20033;-54
2023/10/09 14:24:59;;;;;;;110.47;23.00;;;24.40;55.90;;;;;;5006979;28;20124;-53
2023/10/09 14:27:29;;;;;;;146.02;25.27;;;24.50;56.90;;;;;;5006284;28;20022;-52
2023/10/09 14:29:58;;;;;;;141.88;25.02;;;24.50;57.80;;;;;;5005748;28;20497;-53
2023/10/09 14:32:29;;;;;;;143.57;24.95;;;24.60;57.60;;;;;;5053446;28;20028;-53
2023/10/09 14:35:01;;;;;;;114.30;22.77;;;24.70;57.30;;;;;;5060230;28;20086;-55
2023/10/09 14:37:28;;;;;;;124.40;24.20;;;24.70;57.40;;;;;;5053060;28;20024;-56
2023/10/09 14:39:58;;;;;;;121.55;22.58;;;24.80;57.90;;;;;;5054570;28;20087;-54
2023/10/09 14:42:27;;;;;;;115.30;22.55;;;24.80;58.30;;;;;;5052279;28;20103;-55
2023/10/09 14:44:55;;;;;;;115.88;23.77;;;24.90;57.20;;;;;;5052410;28;20049;-50
2023/10/09 14:47:21;;;;;;;129.18;23.55;;;24.90;56.10;;;;;;5052423;28;20027;-55
2023/10/09 14:50:01;;;;;;;107.22;22.83;;;25.10;56.20;;;;;;5051093;28;20532;-54
2023/10/09 14:52:27;;;;;;;98.60;22.80;;;25.10;55.30;;;;;;5054340;28;20100;-52
2023/10/09 14:54:54;;;;;;;121.47;23.92;;;25.20;55.50;;;;;;5051926;28;20027;-51
2023/10/09 14:57:20;;;;;;;117.47;21.58;;;25.30;54.90;;;;;;5052698;28;20039;-53
2023/10/09 14:59:49;;;;;;;90.00;22.48;;;25.40;54.50;;;;;;5052842;28;20092;-54
2023/10/09 15:02:16;;;;;;;106.18;22.77;;;25.50;54.30;;;;;;5053815;28;20403;-53
2023/10/09 15:04:43;;;;;;;124.78;23.20;;;25.60;54.80;;;;;;5055584;28;20066;-54
2023/10/09 15:07:09;;;;;;;104.80;22.90;;;25.70;53.90;;;;;;5054516;28;20019;-56
2023/10/09 15:09:36;;;;;;;130.55;23.13;;;25.80;53.70;;;;;;5050984;28;20493;-56
2023/10/09 15:12:06;;;;;;;125.30;22.42;;;25.90;52.80;;;;;;5051029;28;20023;-52
2023/10/09 15:14:33;;;;;;;108.15;20.70;;;26.10;52.30;;;;;;5051542;28;20039;-55
2023/10/09 15:17:00;;;;;;;103.22;20.98;;;26.20;51.30;;;;;;5052010;28;20008;-52
2023/10/09 15:19:29;;;;;;;94.38;19.77;;;26.40;50.30;;;;;;5055682;28;20025;-54
2023/10/09 15:21:59;;;;;;;92.10;20.63;;;26.60;50.00;;;;;;5052745;28;20028;-55
2023/10/09 15:24:27;;;;;;;96.78;18.25;;;26.70;49.80;;;;;;5052385;28;20377;-53
2023/10/09 15:26:57;;;;;;;67.93;17.77;;;26.80;49.40;;;;;;5056274;28;20009;-53
2023/10/09 15:29:28;;;;;;;109.45;34.38;;;27.00;49.80;;;;;;5055032;28;20033;-53
2023/10/09 15:32:15;;;;;;;93.93;33.28;;;27.20;47.40;;;;;;5053026;28;20412;-53
2023/10/09 15:34:41;;;;;;;85.90;34.08;;;27.30;47.50;;;;;;5050203;28;20025;-53
2023/10/09 15:37:08;;;;;;;80.63;32.17;;;27.50;47.50;;;;;;5053641;28;20023;-55
2023/10/09 15:39:35;;;;;;;104.20;33.58;;;27.70;47.00;;;;;;5051839;28;20416;-59
2023/10/09 15:42:06;;;;;;;67.75;17.17;;;27.80;46.80;;;;;;5053234;28;20013;-54
2023/10/09 15:44:36;;;;;;;60.80;17.05;;;28.00;46.30;;;;;;5053980;28;20021;-53
2023/10/09 15:47:08;;;;;;;64.45;16.52;;;28.20;46.40;;;;;;5055163;28;20031;-56
2023/10/09 15:49:41;;;;;;;57.17;15.88;;;28.40;46.50;;;;;;5052099;28;20017;-53
2023/10/09 15:52:08;;;;;;;47.05;14.10;;;28.60;44.80;;;;;;5052323;28;20104;-54
2023/10/09 15:54:35;;;;;;;57.80;15.70;;;28.80;44.70;;;;;;5052141;28;20116;-52
2023/10/09 15:57:01;;;;;;;56.30;15.10;;;29.00;45.60;;;;;;5051580;28;20033;-51
2023/10/09 15:59:28;;;;;;;51.17;14.02;;;29.20;43.60;;;;;;5055400;28;20024;-52
2023/10/09 16:01:54;;;;;;;46.30;14.88;;;29.30;43.30;;;;;;5053924;28;20032;-54
2023/10/09 16:04:21;;;;;;;62.40;16.08;;;29.60;44.30;;;;;;5060471;28;20016;-50
2023/10/09 16:06:47;;;;;;;54.25;16.35;;;29.80;43.10;;;;;;5062115;28;20032;-54
2023/10/09 16:09:21;;;;;;;54.85;15.25;;;30.00;43.30;;;;;;5055607;28;20032;-53
2023/10/09 16:11:50;;;;;;;51.17;15.43;;;30.30;43.40;;;;;;5057943;28;20457;-54
2023/10/09 16:14:16;;;;;;;48.45;15.73;;;30.50;43.40;;;;;;5055749;28;20029;-53
2023/10/09 16:16:43;;;;;;;43.08;14.48;;;30.80;44.00;;;;;;5057168;28;20019;-56
2023/10/09 16:19:10;;;;;;;36.42;13.95;;;31.00;43.20;;;;;;5057103;28;20017;-53
2023/10/09 16:21:38;;;;;;;37.38;13.13;;;31.30;43.30;;;;;;5056551;28;20552;-53